Time;durP1;ratioP1;P1;durP2;ratioP2;P2;SDS_P1;SDS_P2;PMS_P1;PMS_P2;Temp;Humidity;BMP_temperature;BMP_pressure;BME280_temperature;BME280_humidity;BME280_pressure;Samples;Min_cycle;Max_cycle;Signal;HPM_P1;HPM_P2
2022/09/14 00:00:55;;;;;;;7.10;0.88;;;14.00;99.90;;;;;;4935706;29;20178;-88
2022/09/14 00:03:21;;;;;;;3.38;0.98;;;13.90;99.90;;;;;;4935593;29;20276;-86
2022/09/14 00:05:47;;;;;;;3.88;0.90;;;14.00;99.90;;;;;;4935252;28;20571;-87
2022/09/14 00:08:13;;;;;;;3.78;1.30;;;13.90;99.90;;;;;;4936851;28;20174;-85
2022/09/14 00:10:44;;;;;;;4.38;1.02;;;13.90;99.90;;;;;;4936576;29;20177;-85
2022/09/14 00:13:12;;;;;;;5.50;1.30;;;13.90;99.90;;;;;;4935551;28;20232;-85
2022/09/14 00:15:43;;;;;;;4.38;1.13;;;13.90;99.90;;;;;;4935410;29;20209;-85
2022/09/14 00:18:10;;;;;;;5.13;1.00;;;13.90;99.90;;;;;;4936397;28;20198;-85
2022/09/14 00:20:35;;;;;;;6.55;1.38;;;13.70;99.90;;;;;;4934656;29;20173;-86
2022/09/14 00:23:02;;;;;;;4.63;1.10;;;13.70;99.90;;;;;;4935082;29;20185;-85
2022/09/14 00:25:28;;;;;;;4.68;0.90;;;13.70;99.90;;;;;;4934967;29;20204;-84
2022/09/14 00:27:55;;;;;;;6.60;1.20;;;13.70;99.90;;;;;;4935250;29;20193;-86
2022/09/14 00:30:22;;;;;;;6.68;1.08;;;13.70;99.90;;;;;;4935224;28;20171;-85
2022/09/14 00:32:49;;;;;;;4.45;0.93;;;13.70;99.90;;;;;;4935160;29;20621;-85
2022/09/14 00:35:15;;;;;;;2.25;0.77;;;13.60;99.90;;;;;;4936158;28;20613;-87
2022/09/14 00:37:41;;;;;;;5.38;1.15;;;13.60;99.90;;;;;;4934959;29;20213;-88
2022/09/14 00:40:07;;;;;;;6.07;1.30;;;13.60;99.90;;;;;;4938500;28;20170;-86
2022/09/14 00:42:33;;;;;;;4.60;1.00;;;13.60;99.90;;;;;;4929986;29;20198;-86
2022/09/14 00:45:20;;;;;;;4.63;0.95;;;13.60;99.90;;;;;;4916995;29;20183;-86
2022/09/14 00:47:51;;;;;;;3.67;0.80;;;13.50;99.90;;;;;;4917061;29;20174;-85
2022/09/14 00:50:17;;;;;;;3.10;1.20;;;13.40;99.90;;;;;;4917030;29;20179;-85
2022/09/14 00:52:47;;;;;;;5.65;1.55;;;13.40;99.90;;;;;;4916175;29;20194;-86
2022/09/14 00:55:17;;;;;;;4.05;1.00;;;13.40;99.90;;;;;;4916805;29;20190;-85
2022/09/14 00:57:48;;;;;;;8.32;1.13;;;13.30;99.90;;;;;;4916924;29;20645;-86
2022/09/14 01:00:18;;;;;;;6.70;1.10;;;13.30;99.90;;;;;;4920574;29;20179;-87
2022/09/14 01:02:44;;;;;;;2.28;1.00;;;13.30;99.90;;;;;;4920330;29;20218;-86
2022/09/14 01:05:11;;;;;;;7.10;1.50;;;13.30;99.90;;;;;;4923465;29;20285;-89
2022/09/14 01:07:58;;;;;;;7.63;1.48;;;13.30;99.90;;;;;;4938683;29;20285;-87
2022/09/14 01:11:07;;;;;;;6.07;1.50;;;13.30;99.90;;;;;;4938258;29;20226;-85
2022/09/14 01:14:02;;;;;;;3.83;1.20;;;13.40;99.90;;;;;;4920121;29;20288;-85
2022/09/14 01:16:52;;;;;;;6.10;1.40;;;13.30;99.90;;;;;;4938051;29;20194;-85
2022/09/14 01:19:38;;;;;;;5.60;1.10;;;13.40;99.90;;;;;;4939084;28;20667;-84
2022/09/14 01:22:11;;;;;;;5.38;1.20;;;13.30;99.90;;;;;;4937129;29;20198;-85
2022/09/14 01:24:50;;;;;;;4.85;1.20;;;13.40;99.90;;;;;;4937916;28;20182;-84
2022/09/14 01:27:43;;;;;;;7.18;1.38;;;13.30;99.90;;;;;;4939179;29;20209;-85
2022/09/14 01:30:22;;;;;;;3.53;1.50;;;13.30;99.90;;;;;;4917116;29;20309;-85
2022/09/14 01:32:51;;;;;;;3.53;1.35;;;13.30;99.90;;;;;;4919175;29;20201;-85
2022/09/14 01:35:34;;;;;;;5.05;1.60;;;13.30;99.90;;;;;;4924411;29;20190;-86
2022/09/14 01:38:12;;;;;;;6.15;1.33;;;13.20;99.90;;;;;;4937624;29;20723;-87
2022/09/14 01:40:42;;;;;;;9.38;2.00;;;13.20;99.90;;;;;;4938406;29;20641;-84
2022/09/14 01:43:16;;;;;;;7.85;2.15;;;13.20;99.90;;;;;;4937589;29;20174;-85
2022/09/14 01:45:47;;;;;;;6.35;1.33;;;13.20;99.90;;;;;;4937327;29;20517;-85
2022/09/14 01:48:14;;;;;;;6.00;1.60;;;13.20;99.90;;;;;;4938809;29;20164;-85
2022/09/14 01:50:47;;;;;;;7.20;1.35;;;13.20;99.90;;;;;;4937885;29;20523;-86
2022/09/14 01:53:33;;;;;;;6.40;1.60;;;13.10;99.90;;;;;;4937629;29;20190;-85
2022/09/14 01:56:04;;;;;;;5.82;1.15;;;13.20;99.90;;;;;;4938613;29;20572;-85
2022/09/14 01:58:35;;;;;;;4.05;1.45;;;13.20;99.90;;;;;;4937775;28;20212;-85
2022/09/14 02:01:03;;;;;;;5.18;1.30;;;13.20;99.90;;;;;;4938537;29;20552;-84
2022/09/14 02:03:35;;;;;;;5.97;1.50;;;13.20;99.90;;;;;;4937106;29;20189;-87
2022/09/14 02:06:06;;;;;;;5.40;1.48;;;13.20;99.90;;;;;;4937049;29;20241;-88
2022/09/14 02:08:33;;;;;;;4.75;1.30;;;13.20;99.90;;;;;;4947498;28;20189;-87
2022/09/14 02:10:59;;;;;;;6.95;1.48;;;13.10;99.90;;;;;;4957771;28;20169;-88
2022/09/14 02:13:25;;;;;;;5.40;1.30;;;13.20;99.90;;;;;;4957665;28;20244;-87
2022/09/14 02:15:51;;;;;;;7.25;1.58;;;13.10;99.90;;;;;;4955984;28;20220;-85
2022/09/14 02:18:18;;;;;;;4.35;1.33;;;13.20;99.90;;;;;;4956256;28;20212;-85
2022/09/14 02:20:50;;;;;;;5.05;1.50;;;13.10;99.90;;;;;;4955975;29;20177;-87
2022/09/14 02:23:16;;;;;;;6.88;1.63;;;13.10;99.90;;;;;;4957797;28;20172;-87
2022/09/14 02:25:43;;;;;;;5.47;1.40;;;13.10;99.90;;;;;;4957640;28;20204;-91
2022/09/14 02:28:09;;;;;;;4.78;1.23;;;13.10;99.90;;;;;;4956603;28;20180;-88
2022/09/14 02:31:10;;;;;;;5.50;1.58;;;13.00;99.90;;;;;;4956352;28;20189;-88
2022/09/14 02:33:47;;;;;;;5.75;1.23;;;13.00;99.90;;;;;;4956059;29;20236;-85
2022/09/14 02:36:31;;;;;;;7.07;1.60;;;13.10;99.90;;;;;;4942945;28;20284;-89
2022/09/14 02:39:35;;;;;;;6.82;1.50;;;13.10;99.90;;;;;;4937365;29;20344;-90
2022/09/14 02:42:33;;;;;;;4.45;1.40;;;13.10;99.90;;;;;;4936875;29;20618;-88
2022/09/14 02:45:08;;;;;;;6.45;1.50;;;12.90;99.90;;;;;;4936217;29;20255;-85
2022/09/14 02:47:55;;;;;;;4.72;1.48;;;12.80;99.90;;;;;;4937508;29;20185;-85
2022/09/14 02:50:31;;;;;;;6.18;1.63;;;12.80;99.90;;;;;;4937207;29;20272;-86
2022/09/14 02:53:23;;;;;;;5.22;1.60;;;12.80;99.90;;;;;;4937544;29;20508;-85
2022/09/14 02:55:54;;;;;;;6.18;1.60;;;12.80;99.90;;;;;;4932849;29;20194;-85
2022/09/14 02:58:20;;;;;;;9.73;1.73;;;12.80;99.90;;;;;;4936163;29;20217;-86
2022/09/14 03:00:48;;;;;;;9.82;1.63;;;12.80;99.90;;;;;;4937262;29;20205;-85
2022/09/14 03:03:17;;;;;;;9.48;1.80;;;12.80;99.90;;;;;;4937325;29;20167;-85
2022/09/14 03:05:43;;;;;;;5.03;1.45;;;12.80;99.90;;;;;;4937038;29;20308;-84
2022/09/14 03:08:09;;;;;;;4.80;1.48;;;12.80;99.90;;;;;;4936417;29;20273;-86
2022/09/14 03:10:36;;;;;;;4.70;1.55;;;12.80;99.90;;;;;;4950216;29;20181;-86
2022/09/14 03:13:01;;;;;;;4.10;1.40;;;12.80;99.90;;;;;;4955118;29;20177;-85
2022/09/14 03:15:28;;;;;;;2.75;1.27;;;12.80;99.90;;;;;;4954822;28;20177;-84
2022/09/14 03:17:54;;;;;;;4.75;1.30;;;12.70;99.90;;;;;;4956062;29;20213;-85
2022/09/14 03:20:25;;;;;;;8.05;1.98;;;12.70;99.90;;;;;;4954363;28;20675;-86
2022/09/14 03:22:51;;;;;;;4.03;1.67;;;12.80;99.90;;;;;;4954700;28;20505;-84
2022/09/14 03:25:18;;;;;;;4.57;1.67;;;12.80;99.90;;;;;;4954899;28;20705;-85
2022/09/14 03:27:50;;;;;;;8.65;1.50;;;12.70;99.90;;;;;;4954753;29;20185;-85
2022/09/14 03:30:17;;;;;;;5.07;1.63;;;12.70;99.90;;;;;;4954830;29;20182;-86
2022/09/14 03:32:43;;;;;;;4.38;1.20;;;12.70;99.90;;;;;;4954629;28;20177;-85
2022/09/14 03:35:08;;;;;;;6.32;1.40;;;12.70;99.90;;;;;;4949822;28;20205;-86
2022/09/14 03:37:37;;;;;;;6.47;1.55;;;12.70;99.90;;;;;;4936806;29;20197;-86
2022/09/14 03:40:04;;;;;;;8.27;1.67;;;12.70;99.90;;;;;;4935192;28;20190;-84
2022/09/14 03:42:30;;;;;;;7.65;1.35;;;12.60;99.90;;;;;;4936878;29;20166;-85
2022/09/14 03:44:56;;;;;;;6.93;1.60;;;12.70;99.90;;;;;;4935430;29;20181;-86
2022/09/14 03:47:21;;;;;;;4.82;1.67;;;12.70;99.90;;;;;;4936499;29;20675;-86
2022/09/14 03:49:47;;;;;;;8.25;1.85;;;12.70;99.90;;;;;;4934773;29;20190;-86
2022/09/14 03:52:13;;;;;;;5.03;1.55;;;12.70;99.90;;;;;;4935516;28;20192;-89
2022/09/14 03:54:38;;;;;;;3.78;1.50;;;12.70;99.90;;;;;;4935131;29;20181;-84
2022/09/14 03:57:06;;;;;;;6.82;1.48;;;12.70;99.90;;;;;;4936685;29;20185;-85
2022/09/14 03:59:32;;;;;;;5.00;1.70;;;12.70;99.90;;;;;;4936280;29;20209;-85
2022/09/14 04:01:58;;;;;;;9.90;1.83;;;12.60;99.90;;;;;;4936352;29;20168;-85
2022/09/14 04:04:24;;;;;;;7.55;1.48;;;12.60;99.90;;;;;;4936413;28;20185;-86
2022/09/14 04:06:49;;;;;;;4.63;1.70;;;12.60;99.90;;;;;;4935009;29;20229;-86
2022/09/14 04:09:17;;;;;;;5.68;1.77;;;12.60;99.90;;;;;;4935322;29;20225;-86
2022/09/14 04:11:42;;;;;;;6.00;1.83;;;12.50;99.90;;;;;;4936603;28;20169;-84
2022/09/14 04:14:08;;;;;;;6.70;1.88;;;12.50;99.90;;;;;;4934843;29;20186;-84
2022/09/14 04:16:33;;;;;;;4.32;2.05;;;12.50;99.90;;;;;;4936199;28;20170;-85
2022/09/14 04:18:59;;;;;;;10.85;2.70;;;12.60;99.90;;;;;;4935176;29;20755;-85
2022/09/14 04:21:25;;;;;;;6.55;2.00;;;12.50;99.90;;;;;;4934607;29;20213;-85
2022/09/14 04:23:53;;;;;;;6.78;1.80;;;12.50;99.90;;;;;;4936211;29;20179;-87
2022/09/14 04:26:20;;;;;;;6.00;1.77;;;12.50;99.90;;;;;;4935486;28;20561;-85
2022/09/14 04:28:46;;;;;;;5.18;1.60;;;12.50;99.90;;;;;;4935164;29;20534;-85
2022/09/14 04:31:12;;;;;;;5.25;1.58;;;12.50;99.90;;;;;;4936267;29;20632;-85
2022/09/14 04:33:40;;;;;;;3.40;1.52;;;12.50;99.90;;;;;;4937720;29;20182;-86
2022/09/14 04:36:14;;;;;;;5.28;1.75;;;12.40;99.90;;;;;;4938545;29;20181;-87
2022/09/14 04:38:41;;;;;;;8.73;2.10;;;12.30;99.90;;;;;;4938516;29;20280;-85
2022/09/14 04:41:09;;;;;;;2.95;1.33;;;12.30;99.90;;;;;;4939911;28;20516;-86
2022/09/14 04:43:35;;;;;;;4.78;1.80;;;12.20;99.90;;;;;;4939778;28;20586;-87
2022/09/14 04:46:07;;;;;;;6.43;2.17;;;12.20;99.90;;;;;;4938217;29;20213;-85
2022/09/14 04:48:34;;;;;;;5.38;1.50;;;12.20;99.90;;;;;;4939706;28;20249;-86
2022/09/14 04:51:05;;;;;;;3.20;1.27;;;12.20;99.90;;;;;;4939400;28;20206;-86
2022/09/14 04:53:33;;;;;;;2.67;1.52;;;12.10;99.90;;;;;;4939576;29;20644;-86
2022/09/14 04:56:02;;;;;;;5.60;1.80;;;12.10;99.90;;;;;;4958748;28;20176;-85
2022/09/14 04:58:28;;;;;;;3.70;1.40;;;12.10;99.90;;;;;;4957694;29;20213;-86
2022/09/14 05:01:05;;;;;;;2.83;1.20;;;12.20;99.90;;;;;;4957676;28;20258;-86
2022/09/14 05:03:30;;;;;;;2.90;1.40;;;12.20;99.90;;;;;;4958902;28;20177;-86
2022/09/14 05:06:04;;;;;;;4.97;1.50;;;12.20;99.90;;;;;;4957263;28;20573;-87
2022/09/14 05:08:31;;;;;;;6.30;1.80;;;12.10;99.90;;;;;;4957209;28;20514;-85
2022/09/14 05:10:59;;;;;;;6.95;1.73;;;12.00;99.90;;;;;;4957321;28;20181;-86
2022/09/14 05:13:25;;;;;;;1.98;1.30;;;12.00;99.90;;;;;;4958472;28;20162;-86
2022/09/14 05:15:51;;;;;;;3.38;1.27;;;12.10;99.90;;;;;;4957426;28;20497;-86
2022/09/14 05:18:17;;;;;;;3.47;1.60;;;12.00;99.90;;;;;;4957245;28;20213;-86
2022/09/14 05:20:43;;;;;;;3.67;1.33;;;12.10;99.90;;;;;;4948177;28;20190;-87
2022/09/14 05:23:08;;;;;;;3.25;1.52;;;12.10;99.90;;;;;;4938342;28;20490;-86
2022/09/14 05:25:34;;;;;;;5.40;1.88;;;12.00;99.90;;;;;;4937820;29;20193;-86
2022/09/14 05:28:00;;;;;;;3.08;1.48;;;12.00;99.90;;;;;;4943029;29;20182;-85
2022/09/14 05:30:25;;;;;;;4.55;1.75;;;12.10;99.90;;;;;;4939271;29;20182;-86
2022/09/14 05:32:51;;;;;;;3.78;1.70;;;12.10;99.90;;;;;;4948377;28;20169;-87
2022/09/14 05:35:17;;;;;;;5.35;1.80;;;12.10;99.90;;;;;;4956408;28;20181;-85
2022/09/14 05:37:43;;;;;;;6.80;1.80;;;12.10;99.90;;;;;;4956491;28;20188;-85
2022/09/14 05:40:09;;;;;;;4.13;1.67;;;12.10;99.90;;;;;;4957903;28;20192;-86
2022/09/14 05:42:35;;;;;;;3.63;2.00;;;12.10;99.90;;;;;;4956956;28;20216;-86
2022/09/14 05:45:00;;;;;;;6.07;2.33;;;12.10;99.90;;;;;;4957581;28;20216;-87
2022/09/14 05:47:29;;;;;;;7.22;1.70;;;12.00;99.90;;;;;;4957948;29;20173;-85
2022/09/14 05:49:56;;;;;;;4.72;1.80;;;12.10;99.90;;;;;;4952609;28;20205;-86
2022/09/14 05:52:22;;;;;;;5.22;2.10;;;12.00;99.90;;;;;;4954029;29;20181;-86
2022/09/14 05:54:47;;;;;;;4.15;1.67;;;12.10;99.90;;;;;;4957651;28;20624;-86
2022/09/14 05:57:13;;;;;;;7.85;1.70;;;12.10;99.90;;;;;;4956883;28;20185;-85
2022/09/14 05:59:39;;;;;;;7.95;2.22;;;12.20;99.90;;;;;;4957664;28;20532;-84
2022/09/14 06:02:06;;;;;;;12.63;2.15;;;12.20;99.90;;;;;;4957619;28;20177;-85
2022/09/14 06:04:31;;;;;;;9.27;2.10;;;12.20;99.90;;;;;;4956665;28;20644;-85
2022/09/14 06:06:57;;;;;;;4.78;1.80;;;12.20;99.90;;;;;;4955924;28;20193;-85
2022/09/14 06:09:23;;;;;;;5.32;1.90;;;12.20;99.90;;;;;;4947507;28;20534;-85
2022/09/14 06:11:49;;;;;;;7.60;1.98;;;12.20;99.90;;;;;;4937000;28;20187;-85
2022/09/14 06:14:18;;;;;;;4.75;1.90;;;12.30;99.90;;;;;;4937059;29;20182;-85
2022/09/14 06:16:44;;;;;;;7.40;1.88;;;12.30;99.90;;;;;;4938280;29;20180;-85
2022/09/14 06:19:11;;;;;;;11.95;2.35;;;12.40;99.90;;;;;;4938056;29;20225;-85
2022/09/14 06:21:37;;;;;;;6.80;1.80;;;12.40;99.90;;;;;;4936702;29;20185;-85
2022/09/14 06:24:03;;;;;;;4.35;1.90;;;12.40;99.90;;;;;;4937754;29;20206;-85
2022/09/14 06:26:29;;;;;;;5.88;1.83;;;12.50;99.90;;;;;;4936500;29;20224;-85
2022/09/14 06:28:55;;;;;;;5.78;2.00;;;12.50;99.90;;;;;;4938077;29;20170;-85
2022/09/14 06:31:21;;;;;;;5.72;2.08;;;12.60;99.90;;;;;;4938188;29;20214;-86
2022/09/14 06:33:48;;;;;;;9.65;2.28;;;12.70;99.90;;;;;;4936479;29;20184;-84
2022/09/14 06:36:18;;;;;;;5.13;2.08;;;12.80;99.90;;;;;;4936076;29;20339;-84
2022/09/14 06:38:45;;;;;;;5.32;2.13;;;12.80;99.90;;;;;;4936099;28;20587;-85
2022/09/14 06:41:16;;;;;;;5.50;2.03;;;12.90;99.90;;;;;;4936123;29;20181;-86
2022/09/14 06:43:42;;;;;;;4.60;2.08;;;13.00;99.90;;;;;;4937419;29;20165;-86
2022/09/14 06:46:20;;;;;;;3.05;1.98;;;13.10;99.90;;;;;;4937089;29;20174;-85
2022/09/14 06:49:11;;;;;;;8.50;2.47;;;13.20;99.90;;;;;;4937701;29;20174;-86
2022/09/14 06:51:39;;;;;;;10.52;2.83;;;13.20;99.90;;;;;;4936481;29;20209;-86
2022/09/14 06:54:06;;;;;;;6.43;1.75;;;13.30;99.90;;;;;;4936294;29;20229;-86
2022/09/14 06:56:34;;;;;;;8.63;2.10;;;13.30;99.90;;;;;;4935845;29;20580;-86
2022/09/14 06:59:00;;;;;;;4.22;1.90;;;13.40;99.90;;;;;;4936206;29;20271;-86
2022/09/14 07:01:27;;;;;;;6.78;2.08;;;13.40;99.90;;;;;;4937413;29;20170;-86
2022/09/14 07:03:53;;;;;;;7.47;2.13;;;13.50;99.90;;;;;;4936098;29;20178;-86
2022/09/14 07:06:24;;;;;;;8.05;2.22;;;13.50;99.90;;;;;;4948148;29;20609;-86
2022/09/14 07:08:51;;;;;;;7.10;2.28;;;13.60;99.90;;;;;;4956473;28;20245;-86
2022/09/14 07:11:19;;;;;;;5.40;1.90;;;13.60;99.90;;;;;;4955113;28;20185;-85
2022/09/14 07:13:46;;;;;;;3.72;1.73;;;13.70;99.90;;;;;;4955740;28;20185;-86
2022/09/14 07:16:12;;;;;;;7.18;2.00;;;13.70;99.90;;;;;;4956480;28;20173;-86
2022/09/14 07:18:38;;;;;;;4.35;1.45;;;13.80;99.90;;;;;;4955170;29;20209;-86
2022/09/14 07:21:11;;;;;;;7.20;1.48;;;13.90;99.90;;;;;;4952796;28;20201;-85
2022/09/14 07:23:40;;;;;;;3.60;1.80;;;14.00;99.90;;;;;;4954802;29;20573;-86
2022/09/14 07:26:08;;;;;;;3.60;1.80;;;14.00;99.90;;;;;;4954800;28;20174;-86
2022/09/14 07:28:35;;;;;;;4.07;1.83;;;14.10;99.90;;;;;;4956521;28;20169;-86
2022/09/14 07:31:02;;;;;;;3.45;1.90;;;14.20;99.90;;;;;;4956525;28;20599;-89
2022/09/14 07:33:28;;;;;;;8.60;1.95;;;14.20;99.90;;;;;;4956525;28;20692;-86
2022/09/14 07:35:54;;;;;;;7.45;2.10;;;14.30;99.90;;;;;;4954825;28;20204;-88
2022/09/14 07:38:20;;;;;;;5.32;2.38;;;14.30;99.90;;;;;;4955431;28;20209;-85
2022/09/14 07:40:46;;;;;;;6.93;2.00;;;14.30;99.90;;;;;;4954887;28;20587;-86
2022/09/14 07:43:11;;;;;;;3.28;1.40;;;14.40;99.90;;;;;;4955184;28;20264;-87
2022/09/14 07:45:38;;;;;;;4.35;1.80;;;14.40;99.90;;;;;;4956130;28;20173;-85
2022/09/14 07:48:04;;;;;;;5.18;1.83;;;14.40;99.90;;;;;;4955092;28;20213;-87
2022/09/14 07:50:30;;;;;;;12.23;1.95;;;14.50;99.90;;;;;;4948668;28;20186;-86
2022/09/14 07:52:56;;;;;;;3.17;1.67;;;14.50;99.90;;;;;;4936031;29;20186;-88
2022/09/14 07:55:21;;;;;;;5.80;1.90;;;14.60;99.90;;;;;;4936134;28;20517;-89
2022/09/14 07:57:47;;;;;;;4.55;1.60;;;14.70;99.90;;;;;;4935962;29;20178;-91
2022/09/14 08:00:13;;;;;;;4.57;1.70;;;14.80;99.90;;;;;;4935903;29;20201;-91
2022/09/14 08:02:40;;;;;;;7.15;2.03;;;14.90;99.90;;;;;;4937286;29;20696;-90
2022/09/14 08:05:06;;;;;;;5.18;1.90;;;14.90;99.90;;;;;;4937024;29;20296;-90
2022/09/14 08:07:32;;;;;;;4.40;1.50;;;14.90;99.90;;;;;;4939627;29;20189;-88
2022/09/14 08:09:58;;;;;;;9.13;2.00;;;15.00;99.90;;;;;;4940957;29;20182;-86
2022/09/14 08:12:23;;;;;;;5.95;1.88;;;15.20;99.90;;;;;;4940109;29;20190;-87
2022/09/14 08:14:51;;;;;;;6.32;1.92;;;15.30;99.90;;;;;;4939772;29;20188;-90
2022/09/14 08:17:17;;;;;;;3.20;1.52;;;15.30;99.90;;;;;;4954156;29;20181;-90
2022/09/14 08:19:42;;;;;;;6.35;1.63;;;15.40;99.90;;;;;;4958942;28;20205;-90
2022/09/14 08:22:09;;;;;;;7.15;1.58;;;15.40;99.90;;;;;;4940722;28;20213;-86
2022/09/14 08:24:34;;;;;;;4.80;1.90;;;15.40;99.90;;;;;;4939800;28;20189;-84
2022/09/14 08:27:00;;;;;;;5.88;1.20;;;15.40;99.90;;;;;;4941063;29;20182;-89
2022/09/14 08:29:26;;;;;;;2.83;1.23;;;15.50;99.90;;;;;;4939994;29;20182;-89
2022/09/14 08:31:54;;;;;;;8.95;1.88;;;15.50;99.90;;;;;;4940983;29;20178;-90
2022/09/14 08:34:19;;;;;;;6.93;2.22;;;15.70;99.90;;;;;;4940499;29;20177;-90
2022/09/14 08:36:46;;;;;;;9.73;2.17;;;15.70;99.90;;;;;;4939497;28;20516;-86
2022/09/14 08:39:13;;;;;;;5.15;1.88;;;15.70;99.90;;;;;;4939080;28;20267;-88
2022/09/14 08:41:44;;;;;;;6.70;1.75;;;15.70;99.90;;;;;;4939605;28;20189;-88
2022/09/14 08:44:13;;;;;;;11.27;2.05;;;15.90;99.90;;;;;;4938848;29;20281;-87
2022/09/14 08:47:18;;;;;;;5.65;1.08;;;15.90;99.90;;;;;;4938805;29;20185;-87
2022/09/14 08:50:02;;;;;;;4.82;1.88;;;16.00;99.90;;;;;;4939486;29;20885;-85
2022/09/14 08:52:42;;;;;;;10.02;1.65;;;16.10;99.90;;;;;;4939681;29;20512;-89
2022/09/14 08:55:27;;;;;;;6.22;1.60;;;16.20;99.90;;;;;;4940599;28;20609;-87
2022/09/14 08:58:11;;;;;;;8.20;1.80;;;16.30;99.90;;;;;;4939037;29;20671;-90
2022/09/14 09:01:00;;;;;;;5.20;1.20;;;16.40;99.90;;;;;;4940680;29;20165;-90
2022/09/14 09:03:50;;;;;;;8.55;1.50;;;16.60;99.90;;;;;;4940179;29;20178;-89
2022/09/14 09:06:23;;;;;;;4.80;1.23;;;16.70;99.90;;;;;;4957145;29;20237;-89
2022/09/14 09:09:18;;;;;;;6.90;1.10;;;16.70;99.90;;;;;;4949919;28;20205;-87
2022/09/14 09:11:49;;;;;;;3.30;1.05;;;16.80;99.90;;;;;;4938428;29;20178;-86
2022/09/14 09:14:25;;;;;;;11.60;1.92;;;16.80;99.90;;;;;;4938433;29;20174;-87
2022/09/14 09:16:54;;;;;;;7.10;1.42;;;16.90;99.90;;;;;;4938357;28;20173;-90
2022/09/14 09:19:35;;;;;;;9.52;1.95;;;17.00;99.90;;;;;;4938017;29;20212;-86
2022/09/14 09:22:05;;;;;;;4.15;1.02;;;17.00;99.90;;;;;;4919438;29;20179;-90
2022/09/14 09:24:36;;;;;;;6.07;1.40;;;17.10;99.90;;;;;;4920902;29;20557;-86
2022/09/14 09:27:12;;;;;;;4.05;1.00;;;17.20;99.90;;;;;;4919524;29;20171;-87
2022/09/14 09:29:39;;;;;;;6.32;1.20;;;17.20;99.90;;;;;;4920608;29;20166;-85
2022/09/14 09:32:10;;;;;;;4.25;1.00;;;17.20;99.90;;;;;;4923962;29;20516;-86
2022/09/14 09:34:35;;;;;;;5.15;1.13;;;17.20;99.90;;;;;;4938242;29;20516;-86
2022/09/14 09:37:01;;;;;;;6.40;1.30;;;17.20;99.90;;;;;;4937776;28;20190;-86
2022/09/14 09:39:30;;;;;;;3.58;1.23;;;17.20;99.90;;;;;;4937681;29;20309;-86
2022/09/14 09:42:02;;;;;;;3.25;1.02;;;17.20;99.90;;;;;;4937759;29;20185;-85
2022/09/14 09:44:27;;;;;;;5.05;1.00;;;17.20;99.90;;;;;;4938797;29;20172;-86
2022/09/14 09:47:00;;;;;;;5.80;1.15;;;17.30;99.90;;;;;;4937733;29;20234;-85
2022/09/14 09:49:36;;;;;;;6.30;1.30;;;17.30;99.90;;;;;;4937647;28;20298;-88
2022/09/14 09:52:10;;;;;;;6.78;1.17;;;17.40;99.90;;;;;;4919413;29;20190;-86
2022/09/14 09:54:38;;;;;;;3.55;1.05;;;17.50;99.90;;;;;;4919901;29;20171;-86
2022/09/14 09:57:17;;;;;;;10.40;1.50;;;17.50;99.90;;;;;;4922178;29;20258;-86
2022/09/14 09:59:45;;;;;;;5.15;1.25;;;17.60;99.90;;;;;;4956787;29;20549;-85
2022/09/14 10:02:29;;;;;;;5.38;1.00;;;17.60;99.90;;;;;;4956379;28;20177;-87
2022/09/14 10:05:02;;;;;;;5.63;0.90;;;17.60;99.90;;;;;;4956097;28;20324;-87
2022/09/14 10:07:31;;;;;;;6.22;1.20;;;17.60;99.90;;;;;;4948813;29;20190;-85
2022/09/14 10:10:18;;;;;;;8.55;1.40;;;17.60;99.90;;;;;;4950306;29;20186;-87
2022/09/14 10:12:48;;;;;;;2.83;0.95;;;17.60;99.90;;;;;;4938328;29;20178;-84
2022/09/14 10:15:26;;;;;;;5.28;1.08;;;17.60;99.90;;;;;;4936951;29;20230;-87
2022/09/14 10:17:53;;;;;;;8.13;1.58;;;17.60;99.90;;;;;;4938330;29;20189;-85
2022/09/14 10:20:21;;;;;;;5.60;1.17;;;17.70;99.90;;;;;;4939903;29;20193;-84
2022/09/14 10:22:47;;;;;;;6.60;1.27;;;17.70;99.90;;;;;;4938104;28;20170;-85
2022/09/14 10:25:13;;;;;;;6.10;1.30;;;17.70;99.90;;;;;;4937768;28;20652;-86
2022/09/14 10:27:51;;;;;;;7.32;1.05;;;17.80;99.90;;;;;;4938022;29;20652;-86
2022/09/14 10:30:18;;;;;;;6.78;1.00;;;17.90;99.90;;;;;;4937192;29;20161;-86
2022/09/14 10:33:05;;;;;;;8.25;1.30;;;18.00;99.90;;;;;;4936620;29;20186;-85
2022/09/14 10:35:53;;;;;;;6.38;1.20;;;18.00;99.90;;;;;;4936423;29;20174;-87
2022/09/14 10:38:32;;;;;;;7.43;1.33;;;18.10;99.90;;;;;;4936490;29;20345;-85
2022/09/14 10:41:56;;;;;;;5.32;1.23;;;18.10;99.90;;;;;;4947024;29;20189;-87
2022/09/14 10:44:30;;;;;;;9.57;1.30;;;18.00;99.90;;;;;;4916093;29;20210;-84
2022/09/14 10:47:18;;;;;;;8.50;1.48;;;18.00;99.90;;;;;;4900750;29;20189;-85
2022/09/14 10:49:50;;;;;;;6.45;1.38;;;17.90;99.90;;;;;;4943449;28;20276;-85
2022/09/14 10:52:39;;;;;;;6.85;1.10;;;17.80;99.90;;;;;;4918084;29;20246;-84
2022/09/14 10:55:43;;;;;;;3.95;1.08;;;17.90;99.90;;;;;;4918371;29;20207;-85
2022/09/14 10:58:17;;;;;;;4.68;1.25;;;17.90;99.90;;;;;;4918942;29;20349;-85
2022/09/14 11:01:00;;;;;;;5.60;1.10;;;18.00;99.90;;;;;;4955020;29;20180;-85
2022/09/14 11:03:35;;;;;;;4.55;1.17;;;18.00;99.90;;;;;;4955119;28;20315;-86
2022/09/14 11:06:31;;;;;;;6.82;1.17;;;18.00;99.90;;;;;;4954349;29;20643;-85
2022/09/14 11:09:02;;;;;;;6.15;1.10;;;18.00;99.90;;;;;;4956219;28;20220;-85
2022/09/14 11:11:46;;;;;;;5.53;1.38;;;18.00;99.90;;;;;;4954467;28;20275;-84
2022/09/14 11:14:45;;;;;;;5.43;0.90;;;18.00;99.90;;;;;;4956128;28;20216;-86
2022/09/14 11:17:39;;;;;;;5.00;1.27;;;18.10;99.90;;;;;;4954926;28;20185;-85
2022/09/14 11:20:19;;;;;;;4.85;0.90;;;18.10;99.90;;;;;;4952050;28;20605;-86
2022/09/14 11:23:00;;;;;;;7.05;1.10;;;18.20;99.90;;;;;;4935866;29;20199;-87
2022/09/14 11:25:32;;;;;;;5.57;1.42;;;18.20;99.90;;;;;;4935765;29;20174;-85
2022/09/14 11:28:03;;;;;;;8.32;1.30;;;18.20;99.90;;;;;;4936824;29;20178;-84
2022/09/14 11:30:39;;;;;;;3.13;0.90;;;18.20;99.90;;;;;;4935749;29;20174;-86
2022/09/14 11:33:29;;;;;;;6.03;1.23;;;18.20;99.90;;;;;;4935729;29;20178;-87
2022/09/14 11:36:15;;;;;;;8.40;1.20;;;18.20;99.90;;;;;;4936239;29;20281;-86
2022/09/14 11:38:51;;;;;;;7.65;1.73;;;18.30;99.90;;;;;;4935518;29;20214;-85
2022/09/14 11:41:51;;;;;;;4.57;1.08;;;18.40;99.90;;;;;;4936518;29;20173;-84
2022/09/14 11:44:30;;;;;;;5.82;1.10;;;18.50;99.90;;;;;;4923147;29;20209;-85
2022/09/14 11:47:17;;;;;;;10.65;1.40;;;18.60;99.90;;;;;;4935232;29;20273;-85
2022/09/14 11:50:00;;;;;;;4.57;1.00;;;18.70;99.90;;;;;;4935833;29;20636;-85
2022/09/14 11:52:28;;;;;;;10.98;1.35;;;18.80;99.90;;;;;;4917631;29;20245;-85
2022/09/14 11:54:57;;;;;;;13.75;1.40;;;18.80;99.90;;;;;;4916476;29;20186;-86
2022/09/14 11:57:31;;;;;;;46.45;4.93;;;18.90;99.90;;;;;;4917608;29;20222;-86
2022/09/14 12:00:07;;;;;;;6.38;1.15;;;19.00;99.90;;;;;;4916347;29;20206;-86
2022/09/14 12:02:36;;;;;;;4.10;0.80;;;19.00;99.90;;;;;;4917702;29;20173;-86
2022/09/14 12:05:05;;;;;;;5.50;1.13;;;19.00;99.90;;;;;;4917203;29;20218;-86
2022/09/14 12:07:42;;;;;;;2.88;0.95;;;19.00;99.90;;;;;;4917286;29;20182;-86
2022/09/14 12:10:14;;;;;;;3.38;1.13;;;18.90;99.90;;;;;;4918369;29;20182;-84
2022/09/14 12:13:03;;;;;;;3.75;1.40;;;18.80;99.90;;;;;;4935319;29;20178;-86
2022/09/14 12:15:28;;;;;;;3.25;1.00;;;18.80;99.90;;;;;;4935265;29;20176;-85
2022/09/14 12:18:06;;;;;;;5.15;1.15;;;18.60;99.90;;;;;;4935241;29;20268;-84
2022/09/14 12:20:43;;;;;;;2.88;0.85;;;18.50;99.90;;;;;;4935419;29;20591;-84
2022/09/14 12:23:21;;;;;;;4.40;1.02;;;18.50;99.90;;;;;;4955650;28;20173;-85
2022/09/14 12:26:05;;;;;;;4.28;0.95;;;18.40;99.90;;;;;;4955089;29;20189;-83
2022/09/14 12:28:42;;;;;;;2.63;1.02;;;18.30;99.90;;;;;;4955050;29;20560;-86
2022/09/14 12:31:12;;;;;;;4.65;0.82;;;18.30;99.90;;;;;;4955712;28;20554;-84
2022/09/14 12:33:37;;;;;;;5.15;0.90;;;18.30;99.90;;;;;;4955470;28;20260;-84
2022/09/14 12:36:32;;;;;;;2.58;0.80;;;18.30;99.90;;;;;;4954022;29;20264;-84
2022/09/14 12:38:57;;;;;;;4.82;1.17;;;18.20;99.90;;;;;;4953941;29;20213;-85
2022/09/14 12:41:23;;;;;;;6.55;1.10;;;18.20;99.90;;;;;;4954199;29;20200;-86
2022/09/14 12:43:49;;;;;;;4.18;1.08;;;18.30;99.90;;;;;;4954204;29;20207;-85
2022/09/14 12:46:21;;;;;;;3.33;1.05;;;18.30;99.90;;;;;;4955565;29;20225;-87
2022/09/14 12:48:46;;;;;;;4.97;0.95;;;18.30;99.90;;;;;;4955365;29;20180;-85
2022/09/14 12:51:27;;;;;;;7.07;1.20;;;18.20;99.90;;;;;;4942192;28;20182;-86
2022/09/14 12:54:17;;;;;;;5.60;1.20;;;18.20;99.90;;;;;;4936645;29;20182;-86
2022/09/14 12:57:27;;;;;;;4.28;1.20;;;18.20;99.90;;;;;;4939078;28;20204;-86
2022/09/14 13:00:15;;;;;;;6.50;1.40;;;18.10;99.90;;;;;;4939843;29;20209;-84
2022/09/14 13:03:06;;;;;;;5.40;1.00;;;18.00;99.90;;;;;;4947446;29;20220;-86
2022/09/14 13:05:33;;;;;;;3.60;1.00;;;18.00;99.90;;;;;;4957338;28;20233;-89
2022/09/14 13:07:59;;;;;;;2.15;0.60;;;17.90;99.90;;;;;;4957616;28;20624;-84
2022/09/14 13:10:32;;;;;;;5.25;1.00;;;17.90;99.90;;;;;;4947483;28;20257;-88